Time;durP1;ratioP1;P1;durP2;ratioP2;P2;SDS_P1;SDS_P2;PMS_P1;PMS_P2;Temp;Humidity;BMP_temperature;BMP_pressure;BME280_temperature;BME280_humidity;BME280_pressure;Samples;Min_cycle;Max_cycle;Signal;HPM_P1;HPM_P2
2022/01/14 00:02:10;;;;;;;50.10;17.92;;;;;;;3.32;89.76;100480.25;8475425;27;20492;-69
2022/01/14 00:06:10;;;;;;;38.67;16.92;;;;;;;3.25;89.99;100484.84;8483821;27;20146;-70
2022/01/14 00:10:11;;;;;;;42.88;16.92;;;;;;;3.20;90.37;100492.72;8473370;27;20047;-70
2022/01/14 00:18:16;;;;;;;43.67;17.92;;;;;;;3.17;90.49;100477.19;8468611;28;20078;-69
2022/01/14 00:22:17;;;;;;;42.85;18.58;;;;;;;3.35;90.07;100487.78;8477492;28;20150;-68
2022/01/14 00:34:57;;;;;;;49.13;19.48;;;;;;;3.29;89.92;100470.00;8470281;28;20525;-71
2022/01/14 00:38:58;;;;;;;46.00;17.40;;;;;;;3.19;90.60;100469.72;8475977;28;20146;-70
2022/01/14 00:42:59;;;;;;;49.00;19.75;;;;;;;3.23;90.46;100471.72;8476880;28;20047;-70
2022/01/14 00:47:03;;;;;;;50.00;19.48;;;;;;;3.24;90.23;100480.53;8475963;28;20411;-70
2022/01/14 00:51:04;;;;;;;43.67;18.08;;;;;;;3.22;90.27;100485.31;8484957;28;20046;-70
2022/01/14 00:55:06;;;;;;;48.10;19.77;;;;;;;3.22;90.29;100474.63;8484306;28;20047;-69
2022/01/14 00:59:16;;;;;;;50.90;19.38;;;;;;;3.15;90.51;100476.56;8423562;28;20044;-70
2022/01/14 01:03:17;;;;;;;51.72;20.10;;;;;;;3.10;90.98;100468.44;8476073;28;20085;-69
2022/01/14 01:07:21;;;;;;;50.60;19.75;;;;;;;3.12;90.75;100479.72;8470352;28;20051;-68
2022/01/14 01:11:27;;;;;;;46.30;19.15;;;;;;;3.09;90.57;100480.16;8482986;28;20039;-70
2022/01/14 01:15:28;;;;;;;46.63;19.40;;;;;;;3.04;90.96;100488.03;8408734;27;1169199;-70
2022/01/14 01:19:31;;;;;;;44.50;18.42;;;;;;;3.11;90.35;100491.41;8464346;27;20078;-70
2022/01/14 01:23:32;;;;;;;43.83;18.02;;;;;;;3.18;89.62;100489.47;8476958;27;20047;-70
2022/01/14 01:27:38;;;;;;;40.35;16.85;;;;;;;3.08;89.45;100473.19;8474218;27;20139;-70
2022/01/14 01:31:40;;;;;;;43.38;16.23;;;;;;;3.03;89.55;100478.38;8481854;27;20051;-68
2022/01/14 01:35:42;;;;;;;36.00;16.50;;;;;;;3.00;89.87;100470.84;8476580;27;20100;-71
2022/01/14 01:39:43;;;;;;;39.53;17.40;;;;;;;2.99;89.69;100470.00;8475790;27;20051;-70
2022/01/14 01:43:50;;;;;;;35.15;14.65;;;;;;;3.00;89.71;100471.66;8486779;27;20089;-70
2022/01/14 01:47:54;;;;;;;43.17;19.70;;;;;;;2.94;89.92;100478.69;8461152;27;20060;-71
2022/01/14 01:51:55;;;;;;;52.88;20.08;;;;;;;2.96;89.54;100481.94;8454149;28;20071;-69
2022/01/14 01:55:56;;;;;;;48.88;19.85;;;;;;;2.98;89.24;100474.53;8463963;27;20073;-70
2022/01/14 01:59:57;;;;;;;42.13;17.75;;;;;;;3.02;88.80;100484.75;8480765;27;20049;-68
2022/01/14 02:03:58;;;;;;;49.60;20.55;;;;;;;2.94;89.40;100477.88;8477755;27;20154;-70
2022/01/14 02:07:59;;;;;;;45.88;19.73;;;;;;;2.93;89.34;100474.41;8473216;27;20043;-70
2022/01/14 02:12:05;;;;;;;46.85;19.80;;;;;;;2.91;89.10;100478.31;8488816;27;20092;-70
2022/01/14 02:28:41;;;;;;;48.00;19.80;;;;;;;2.88;89.99;100468.09;8470915;27;20040;-70
2022/01/14 02:32:42;;;;;;;49.25;20.85;;;;;;;2.95;89.65;100453.66;8483924;27;20062;-69
2022/01/14 02:36:45;;;;;;;50.10;18.40;;;;;;;2.90;90.29;100456.19;8481386;27;20106;-70
2022/01/14 02:40:47;;;;;;;53.08;19.80;;;;;;;2.88;90.01;100447.59;8460037;27;20056;-69
2022/01/14 02:44:49;;;;;;;46.13;19.50;;;;;;;2.95;90.11;100421.63;8458465;27;20047;-70
2022/01/14 02:48:49;;;;;;;52.03;18.42;;;;;;;2.90;90.38;100418.81;8479929;27;20396;-68
2022/01/14 02:56:55;;;;;;;50.45;19.67;;;;;;;2.85;91.05;100431.22;8470788;28;20440;-69
2022/01/14 03:00:59;;;;;;;49.78;19.13;;;;;;;2.88;91.36;100425.41;8433710;28;20048;-69
2022/01/14 03:05:01;;;;;;;51.67;19.35;;;;;;;2.86;91.46;100422.97;8468647;28;20052;-68
2022/01/14 03:09:02;;;;;;;54.60;19.05;;;;;;;2.89;91.61;100417.19;8469359;28;20055;-69
2022/01/14 03:13:03;;;;;;;51.67;20.38;;;;;;;2.89;92.03;100411.03;8470335;28;20513;-69
2022/01/14 03:17:04;;;;;;;48.20;18.80;;;;;;;2.88;92.08;100404.88;8447450;28;20047;-70
2022/01/14 03:21:10;;;;;;;55.95;20.60;;;;;;;2.87;92.34;100419.25;8475583;28;20065;-69
2022/01/14 03:29:30;;;;;;;52.42;18.70;;;;;;;2.94;92.42;100404.00;8485827;28;20154;-69
2022/01/14 03:33:31;;;;;;;43.53;19.27;;;;;;;2.85;93.15;100393.88;8472096;28;20054;-69
2022/01/14 03:37:32;;;;;;;50.70;19.20;;;;;;;2.93;92.84;100383.66;8464288;28;20051;-70
2022/01/14 03:41:33;;;;;;;52.75;18.60;;;;;;;2.93;93.12;100378.34;8474314;28;20199;-69
2022/01/14 03:45:34;;;;;;;50.90;20.13;;;;;;;2.98;92.76;100367.78;8484470;28;20052;-68
2022/01/14 03:49:34;;;;;;;38.30;15.50;;;;;;;2.98;92.93;100354.44;8476966;28;20421;-69
2022/01/14 03:53:35;;;;;;;52.03;20.25;;;;;;;2.97;92.93;100350.16;8485056;27;20075;-70
2022/01/14 03:57:36;;;;;;;53.90;20.10;;;;;;;2.97;92.82;100355.47;8470497;27;20052;-69
2022/01/14 04:01:37;;;;;;;48.92;19.85;;;;;;;3.04;92.20;100354.56;8491388;27;20049;-69
2022/01/14 04:05:38;;;;;;;48.63;19.48;;;;;;;2.97;92.35;100352.81;8484998;27;20040;-71
2022/01/14 04:09:40;;;;;;;46.22;17.33;;;;;;;3.01;92.49;100333.69;8478829;27;20447;-70
2022/01/14 04:13:51;;;;;;;48.40;18.48;;;;;;;3.04;91.95;100327.88;8441577;27;20047;-69
2022/01/14 04:17:52;;;;;;;44.72;16.33;;;;;;;3.08;91.75;100313.03;8463737;27;20447;-70
2022/01/14 04:21:53;;;;;;;47.25;17.17;;;;;;;3.14;91.25;100317.47;8465532;27;20134;-69
2022/01/14 04:25:55;;;;;;;49.92;18.85;;;;;;;3.12;91.12;100303.53;8442774;27;20141;-70
2022/01/14 04:29:55;;;;;;;47.08;17.20;;;;;;;3.03;91.24;100294.22;8431306;27;20483;-70
2022/01/14 04:33:56;;;;;;;56.72;18.30;;;;;;;3.02;91.67;100297.94;8484565;27;20142;-68
2022/01/14 04:37:57;;;;;;;59.13;21.05;;;;;;;2.98;91.55;100293.06;8457543;27;20103;-69
2022/01/14 04:41:58;;;;;;;54.58;21.30;;;;;;;2.97;91.27;100302.13;8471057;27;20047;-69
2022/01/14 04:50:01;;;;;;;64.13;21.00;;;;;;;2.98;91.15;100306.41;8465934;27;20511;-68
2022/01/14 04:54:03;;;;;;;56.28;21.63;;;;;;;2.83;92.07;100316.72;8440193;27;20062;-69
2022/01/14 04:58:04;;;;;;;54.33;21.80;;;;;;;2.89;91.75;100305.13;8457170;28;20550;-69
2022/01/14 05:02:05;;;;;;;57.35;21.85;;;;;;;2.83;91.98;100306.03;8468029;27;20103;-70
2022/01/14 05:06:07;;;;;;;61.33;22.05;;;;;;;2.87;91.63;100323.22;8473966;27;20052;-71
2022/01/14 05:10:18;;;;;;;65.15;20.45;;;;;;;2.83;91.89;100316.72;8460352;27;20074;-69
2022/01/14 05:14:19;;;;;;;54.58;20.20;;;;;;;2.79;92.19;100310.22;8469105;27;20143;-68
2022/01/14 05:18:21;;;;;;;45.67;16.25;;;;;;;2.78;92.49;100313.91;8481662;27;20043;-69
2022/01/14 05:22:21;;;;;;;58.53;19.25;;;;;;;2.77;92.70;100317.63;8424607;27;20051;-70
2022/01/14 05:26:22;;;;;;;58.70;20.50;;;;;;;2.63;93.32;100305.53;8498041;27;20091;-68
2022/01/14 05:30:23;;;;;;;53.20;18.40;;;;;;;2.70;93.24;100303.56;8484882;27;20047;-69
2022/01/14 05:34:24;;;;;;;51.58;20.17;;;;;;;2.71;93.33;100301.72;8490400;27;20043;-70
2022/01/14 05:38:24;;;;;;;53.45;20.45;;;;;;;2.71;93.48;100281.19;8481514;27;20161;-69
2022/01/14 05:42:25;;;;;;;55.85;19.77;;;;;;;2.62;94.42;100271.91;8462614;27;20043;-70
2022/01/14 05:46:26;;;;;;;52.95;20.20;;;;;;;2.66;94.63;100277.56;8443313;28;20118;-68
2022/01/14 05:50:27;;;;;;;58.38;18.98;;;;;;;2.69;94.47;100267.28;8461614;27;20437;-70
2022/01/14 05:54:28;;;;;;;57.80;21.08;;;;;;;2.70;94.82;100263.56;8461290;28;20163;-68
2022/01/14 05:58:28;;;;;;;65.05;23.13;;;;;;;2.66;95.12;100267.72;8461352;28;20406;-69
2022/01/14 06:02:29;;;;;;;46.72;18.33;;;;;;;2.63;95.37;100276.19;8461228;28;20032;-69
2022/01/14 06:06:31;;;;;;;58.13;21.65;;;;;;;2.55;96.03;100255.16;8461578;27;20438;-70
2022/01/14 06:10:31;;;;;;;58.00;20.35;;;;;;;2.56;96.28;100256.81;8460938;28;20047;-69
2022/01/14 06:14:32;;;;;;;61.15;20.83;;;;;;;2.64;95.81;100269.81;8460441;27;20081;-69
2022/01/14 06:18:33;;;;;;;55.58;21.42;;;;;;;2.55;96.19;100261.31;8460856;27;20143;-69
2022/01/14 06:22:36;;;;;;;56.05;20.30;;;;;;;2.52;96.85;100260.97;8462946;27;20084;-69
2022/01/14 06:26:36;;;;;;;56.42;21.90;;;;;;;2.51;96.83;100259.34;8460855;28;20118;-69
2022/01/14 06:30:37;;;;;;;64.50;21.63;;;;;;;2.45;97.29;100254.91;8462577;27;20047;-70
2022/01/14 06:34:38;;;;;;;52.45;20.77;;;;;;;2.52;97.48;100255.63;8460759;28;20827;-69
2022/01/14 06:38:39;;;;;;;65.10;21.75;;;;;;;2.46;97.78;100256.53;8478044;27;20043;-68
2022/01/14 06:42:40;;;;;;;56.60;19.15;;;;;;;2.57;97.35;100253.09;8476851;27;20547;-70
2022/01/14 06:46:41;;;;;;;53.95;21.27;;;;;;;2.60;97.14;100241.97;8411541;27;20043;-70
2022/01/14 06:50:41;;;;;;;58.60;20.85;;;;;;;2.57;97.79;100253.09;8469307;27;20126;-70
2022/01/14 06:54:42;;;;;;;65.75;22.33;;;;;;;2.52;98.16;100247.63;8442519;28;20487;-69
2022/01/14 06:58:44;;;;;;;57.83;21.52;;;;;;;2.49;98.50;100245.41;8463434;28;20127;-70
2022/01/14 07:02:45;;;;;;;49.17;19.00;;;;;;;2.55;98.66;100228.50;8446685;28;20043;-70
2022/01/14 07:06:45;;;;;;;59.40;22.25;;;;;;;2.60;98.32;100217.97;8493388;28;20185;-70
2022/01/14 07:10:46;;;;;;;55.50;20.08;;;;;;;2.61;98.49;100216.09;8493531;28;20118;-69
2022/01/14 07:14:47;;;;;;;50.92;19.92;;;;;;;2.60;98.32;100220.63;8431355;28;20047;-70
2022/01/14 07:18:49;;;;;;;56.00;18.48;;;;;;;2.56;98.69;100235.47;8460593;28;20056;-69
2022/01/14 07:22:50;;;;;;;57.83;21.48;;;;;;;2.63;98.99;100224.72;8459347;28;20126;-68
2022/01/14 07:26:51;;;;;;;58.47;21.52;;;;;;;2.68;98.72;100217.66;8460471;28;20047;-68
2022/01/14 07:30:51;;;;;;;59.13;22.10;;;;;;;2.66;98.80;100209.03;8466203;28;20040;-69
2022/01/14 07:34:53;;;;;;;65.43;20.35;;;;;;;2.62;98.89;100197.22;8434695;28;20056;-69
2022/01/14 07:38:53;;;;;;;53.90;21.60;;;;;;;2.71;98.44;100182.50;8433162;28;20055;-70
2022/01/14 07:42:54;;;;;;;47.38;15.88;;;;;;;2.67;98.66;100184.00;8454094;28;20051;-69
2022/01/14 07:46:55;;;;;;;55.85;19.77;;;;;;;2.68;98.46;100180.31;8466692;28;20071;-70
2022/01/14 07:50:56;;;;;;;59.40;20.95;;;;;;;2.67;98.76;100178.66;8456508;28;20056;-69
2022/01/14 07:54:56;;;;;;;57.63;20.50;;;;;;;2.67;98.79;100178.66;8432973;28;20044;-69
2022/01/14 07:58:57;;;;;;;49.38;17.25;;;;;;;2.72;98.84;100175.31;8432661;28;20051;-69
2022/01/14 08:02:59;;;;;;;55.75;18.90;;;;;;;2.71;98.86;100189.69;8436805;28;20043;-68
2022/01/14 08:07:08;;;;;;;35.33;12.88;;;;;;;2.77;98.96;100178.91;8466341;28;20058;-69
2022/01/14 08:11:09;;;;;;;45.80;18.73;;;;;;;2.75;98.65;100178.31;8465973;28;20077;-68
2022/01/14 08:15:10;;;;;;;55.13;20.23;;;;;;;2.62;99.46;100165.22;8495354;27;20059;-69
2022/01/14 08:19:11;;;;;;;54.33;19.40;;;;;;;2.69;99.75;100155.25;8499645;27;20425;-70
2022/01/14 08:23:12;;;;;;;38.50;14.50;;;;;;;2.79;99.28;100158.16;8499386;27;20043;-69
2022/01/14 08:27:13;;;;;;;42.85;15.00;;;;;;;2.83;98.48;100175.31;8492182;27;20415;-70
2022/01/14 08:31:16;;;;;;;45.30;17.25;;;;;;;2.79;99.20;100160.81;8466578;27;20051;-70
2022/01/14 08:35:16;;;;;;;42.55;16.48;;;;;;;2.86;98.57;100158.84;8480713;27;20050;-69
2022/01/14 08:39:18;;;;;;;45.50;14.90;;;;;;;2.88;98.67;100162.09;8498565;27;20043;-69
2022/01/14 08:43:19;;;;;;;44.42;17.55;;;;;;;2.86;98.62;100155.34;8499081;27;20050;-69
2022/01/14 08:47:24;;;;;;;44.70;15.73;;;;;;;2.88;98.69;100164.75;8498763;27;20062;-68
2022/01/14 08:51:26;;;;;;;40.83;17.60;;;;;;;2.86;99.04;100166.84;8498847;27;20090;-69
2022/01/14 08:55:27;;;;;;;34.00;13.45;;;;;;;2.98;97.95;100170.31;8497957;27;20054;-69
2022/01/14 08:59:31;;;;;;;41.30;16.55;;;;;;;3.02;97.71;100175.19;8498582;27;20480;-68
2022/01/14 09:03:32;;;;;;;42.05;14.23;;;;;;;2.98;97.67;100185.53;8475986;27;20048;-69
2022/01/14 09:07:33;;;;;;;44.20;17.52;;;;;;;3.02;97.37;100175.19;8464076;28;20061;-69
2022/01/14 09:11:35;;;;;;;36.85;11.98;;;;;;;3.02;97.72;100180.50;8463878;28;20126;-70
2022/01/14 09:15:36;;;;;;;41.72;15.90;;;;;;;3.06;97.20;100176.34;8463647;28;20135;-70
2022/01/14 09:19:38;;;;;;;42.10;16.17;;;;;;;3.07;97.19;100178.00;8463919;28;20472;-69
2022/01/14 09:23:39;;;;;;;34.90;15.40;;;;;;;3.13;96.80;100171.69;8426670;27;20044;-69
2022/01/14 09:27:40;;;;;;;44.38;18.02;;;;;;;3.16;96.61;100187.25;8463362;28;20110;-68
2022/01/14 09:31:41;;;;;;;40.22;16.10;;;;;;;3.10;97.07;100172.16;8468555;27;20134;-68
2022/01/14 09:35:43;;;;;;;34.80;13.82;;;;;;;3.14;97.33;100163.47;8484713;27;20122;-70
2022/01/14 09:39:44;;;;;;;38.83;16.30;;;;;;;3.08;97.42;100164.38;8486470;27;20047;-70
2022/01/14 09:43:45;;;;;;;31.70;12.35;;;;;;;3.15;97.34;100169.59;8483899;27;20058;-70
2022/01/14 09:47:48;;;;;;;39.55;15.70;;;;;;;3.11;97.62;100163.13;8463022;28;20133;-70
2022/01/14 09:51:49;;;;;;;31.08;13.77;;;;;;;3.13;97.58;100177.03;8450229;27;20210;-69
2022/01/14 09:55:50;;;;;;;38.92;12.90;;;;;;;3.24;96.64;100152.19;8484047;27;20043;-70
2022/01/14 09:59:51;;;;;;;41.17;15.00;;;;;;;3.15;97.44;100127.72;8461225;28;20522;-70
2022/01/14 10:04:00;;;;;;;39.90;15.88;;;;;;;3.19;97.24;100144.06;8443062;28;20054;-69
2022/01/14 10:08:21;;;;;;;39.85;16.75;;;;;;;3.14;97.78;100163.47;8462523;28;20052;-69
2022/01/14 10:12:22;;;;;;;41.15;17.00;;;;;;;3.28;96.50;100153.31;8467565;27;20071;-68
2022/01/14 10:16:24;;;;;;;112.90;61.25;;;;;;;3.28;96.57;100147.97;8495827;27;20055;-69
2022/01/14 10:20:36;;;;;;;39.53;15.98;;;;;;;3.29;96.43;100146.94;8495227;27;20043;-69
2022/01/14 10:24:37;;;;;;;43.90;19.23;;;;;;;3.31;96.18;100147.53;8477589;27;20047;-68
2022/01/14 10:28:37;;;;;;;49.30;24.23;;;;;;;3.32;96.32;100128.63;8382219;28;20049;-69
2022/01/14 10:32:40;;;;;;;42.92;16.58;;;;;;;3.43;95.53;100113.59;8354833;28;20102;-69
2022/01/14 10:36:45;;;;;;;42.03;17.08;;;;;;;3.34;95.87;100120.34;8356716;28;20155;-68
2022/01/14 10:54:51;;;;;;;37.33;17.83;;;;;;;3.38;95.45;100084.13;8344814;28;20494;-72
2022/01/14 10:58:59;;;;;;;23.90;10.55;;;;;;;3.38;95.67;100089.47;8323421;28;20060;-72
2022/01/14 11:03:02;;;;;;;45.83;16.48;;;;;;;3.47;94.68;100088.03;8332261;28;20531;-72
2022/01/14 11:07:03;;;;;;;39.88;17.00;;;;;;;3.42;95.11;100074.59;8334756;28;20080;-71
2022/01/14 11:11:04;;;;;;;40.05;14.95;;;;;;;3.30;96.20;100060.47;8315601;28;20144;-72
2022/01/14 11:15:07;;;;;;;38.58;15.48;;;;;;;3.25;96.61;100066.53;8330593;28;20080;-72
2022/01/14 11:19:09;;;;;;;42.28;18.23;;;;;;;3.15;97.08;100046.84;8324298;28;20493;-71
2022/01/14 11:23:16;;;;;;;45.17;17.25;;;;;;;3.15;97.56;100052.16;8328263;28;20475;-70
2022/01/14 11:27:18;;;;;;;38.85;15.90;;;;;;;3.12;98.03;100036.66;8330896;28;20392;-71
2022/01/14 11:31:25;;;;;;;38.35;13.23;;;;;;;3.06;98.68;100026.91;8331621;28;20128;-72
2022/01/14 11:35:26;;;;;;;42.13;15.25;;;;;;;3.16;98.03;100032.44;8333947;28;20060;-71
2022/01/14 11:39:34;;;;;;;50.10;18.33;;;;;;;3.16;97.99;100048.47;8262111;28;20046;-71
2022/01/14 11:43:54;;;;;;;44.60;17.35;;;;;;;3.04;98.57;100034.34;8330286;28;20481;-72
2022/01/14 11:47:58;;;;;;;40.45;14.32;;;;;;;3.12;98.19;100039.31;8334190;28;20476;-71
2022/01/14 11:52:00;;;;;;;46.35;16.08;;;;;;;3.00;98.20;100022.53;8323390;28;20061;-72
2022/01/14 11:56:03;;;;;;;42.40;16.73;;;;;;;3.08;97.78;100008.78;8298931;28;20050;-72
2022/01/14 12:00:30;;;;;;;34.78;13.32;;;;;;;3.17;96.49;99996.72;8303648;28;20061;-71
2022/01/14 12:05:04;;;;;;;44.50;17.02;;;;;;;3.05;97.17;100035.97;8303129;28;20116;-72
2022/01/14 12:09:05;;;;;;;49.72;18.40;;;;;;;3.10;97.05;100033.38;8311112;28;20070;-71
2022/01/14 12:13:26;;;;;;;39.60;16.38;;;;;;;3.05;97.37;100025.28;8299192;28;20121;-72
2022/01/14 12:17:41;;;;;;;41.63;16.65;;;;;;;3.12;97.10;100025.97;8300940;28;20065;-72
2022/01/14 12:21:51;;;;;;;29.73;10.80;;;;;;;3.21;96.15;99997.84;8300827;28;20054;-72
2022/01/14 12:25:52;;;;;;;43.33;16.35;;;;;;;3.17;96.71;100004.72;8300678;28;20595;-71
2022/01/14 12:30:03;;;;;;;48.47;17.77;;;;;;;3.19;96.14;99983.91;8299360;28;20256;-71
2022/01/14 12:34:08;;;;;;;39.60;15.35;;;;;;;3.26;95.76;99995.25;8300319;28;20050;-72
2022/01/14 12:38:12;;;;;;;45.22;16.08;;;;;;;3.09;96.65;100031.75;8300287;28;20045;-71
2022/01/14 12:42:13;;;;;;;38.50;17.35;;;;;;;3.24;96.35;99981.34;8287745;28;20133;-73
2022/01/14 12:50:45;;;;;;;32.42;12.82;;;;;;;3.22;96.74;100010.16;8267719;28;20128;-71
2022/01/14 12:54:46;;;;;;;42.10;13.68;;;;;;;3.23;96.33;100017.06;8250973;28;20197;-72
2022/01/14 12:58:56;;;;;;;34.20;15.27;;;;;;;3.26;96.81;100013.94;8268636;28;20054;-72
2022/01/14 13:02:58;;;;;;;40.95;16.38;;;;;;;3.25;96.54;100020.34;8300131;28;20058;-71
2022/01/14 13:07:02;;;;;;;38.92;15.25;;;;;;;3.29;96.75;100018.78;8297617;28;20054;-71
2022/01/14 13:11:07;;;;;;;40.70;17.95;;;;;;;3.21;97.67;100008.53;8299525;28;20060;-71
2022/01/14 13:15:16;;;;;;;38.00;16.83;;;;;;;3.19;97.73;100015.94;8299660;28;20058;-72
2022/01/14 13:19:20;;;;;;;36.42;15.10;;;;;;;3.15;99.01;100022.81;8299368;28;20062;-71
2022/01/14 13:23:21;;;;;;;34.95;15.70;;;;;;;3.10;99.09;100022.72;8299320;28;20472;-72
2022/01/14 13:27:27;;;;;;;39.40;16.25;;;;;;;3.10;99.59;100017.38;8298510;28;20132;-72
2022/01/14 13:31:28;;;;;;;37.35;15.70;;;;;;;3.13;99.84;100017.69;8229910;28;20050;-71
2022/01/14 13:35:31;;;;;;;34.72;15.98;;;;;;;3.06;100.00;100022.38;8230468;28;20047;-72
2022/01/14 13:39:33;;;;;;;31.83;14.00;;;;;;;3.07;100.00;100017.88;8229831;28;20050;-71
2022/01/14 13:43:38;;;;;;;39.85;16.65;;;;;;;3.09;100.00;100021.09;8229867;28;20482;-72
2022/01/14 13:47:40;;;;;;;31.98;13.93;;;;;;;3.10;100.00;100004.03;8214373;28;20047;-72
2022/01/14 13:51:41;;;;;;;36.33;14.10;;;;;;;2.96;100.00;100014.97;8182041;28;20050;-71
2022/01/14 13:55:47;;;;;;;51.55;15.30;;;;;;;3.12;100.00;99993.94;8198124;28;20070;-72
2022/01/14 13:59:48;;;;;;;33.47;14.75;;;;;;;2.97;100.00;100029.94;8216045;28;20094;-72
2022/01/14 14:04:01;;;;;;;28.80;14.02;;;;;;;3.01;100.00;100024.16;8297994;28;20064;-71
2022/01/14 14:08:14;;;;;;;31.05;14.95;;;;;;;3.11;100.00;100035.84;8296850;28;20144;-71
2022/01/14 14:12:41;;;;;;;30.42;14.50;;;;;;;3.06;100.00;100032.25;8297753;28;20489;-72
2022/01/14 14:16:43;;;;;;;27.58;12.68;;;;;;;3.02;100.00;100031.06;8297149;28;20070;-72
2022/01/14 14:20:44;;;;;;;30.67;13.13;;;;;;;3.00;100.00;100049.19;8308700;28;20049;-71
2022/01/14 14:24:57;;;;;;;26.80;13.15;;;;;;;3.17;100.00;100044.75;8297973;28;20057;-71
2022/01/14 14:29:24;;;;;;;22.73;10.70;;;;;;;3.30;100.00;100049.78;8299035;28;20129;-72
2022/01/14 14:33:25;;;;;;;25.25;9.60;;;;;;;3.27;100.00;100028.94;8297453;28;20136;-72
2022/01/14 14:37:27;;;;;;;23.65;11.75;;;;;;;3.29;100.00;100042.81;8307242;28;20061;-72
2022/01/14 14:41:28;;;;;;;31.45;16.02;;;;;;;3.21;100.00;100056.56;8330202;28;20073;-72
2022/01/14 14:45:29;;;;;;;60.33;28.65;;;;;;;3.19;100.00;100037.28;8328869;28;20124;-72
2022/01/14 14:49:31;;;;;;;31.95;15.88;;;;;;;3.27;100.00;100039.59;8302545;28;20053;-72
2022/01/14 14:53:32;;;;;;;32.92;16.38;;;;;;;3.29;100.00;100037.50;8297101;28;20116;-72
2022/01/14 14:57:34;;;;;;;32.10;15.70;;;;;;;3.34;100.00;100056.28;8238940;28;20069;-72
2022/01/14 15:01:35;;;;;;;26.33;12.98;;;;;;;3.30;100.00;100065.81;8261009;28;20047;-71
2022/01/14 15:05:36;;;;;;;25.35;13.38;;;;;;;3.26;100.00;100067.34;8261083;28;20058;-72
2022/01/14 15:09:39;;;;;;;25.40;12.48;;;;;;;3.34;100.00;100061.59;8244245;28;20120;-71
2022/01/14 15:13:42;;;;;;;23.55;12.00;;;;;;;3.29;100.00;100064.19;8234055;28;20141;-71
2022/01/14 15:22:07;;;;;;;26.88;15.18;;;;;;;3.29;100.00;100064.19;8260310;28;20492;-72
2022/01/14 15:26:08;;;;;;;26.45;13.02;;;;;;;3.29;100.00;100054.31;8254772;28;20141;-71
2022/01/14 15:30:09;;;;;;;31.65;14.73;;;;;;;3.29;100.00;100048.16;8301093;28;20073;-72
2022/01/14 15:34:10;;;;;;;33.33;14.43;;;;;;;3.28;100.00;100041.19;8302588;28;20053;-72
2022/01/14 15:38:13;;;;;;;30.38;15.07;;;;;;;3.34;100.00;100050.94;8331147;28;20076;-72
2022/01/14 15:42:14;;;;;;;35.20;16.02;;;;;;;3.40;100.00;100044.63;8335322;28;20064;-72
2022/01/14 15:46:15;;;;;;;28.85;15.20;;;;;;;3.53;100.00;100049.69;8322242;28;20450;-73
2022/01/14 15:50:16;;;;;;;31.48;14.40;;;;;;;3.48;100.00;100057.63;8302215;28;20062;-71
2022/01/14 15:54:17;;;;;;;40.30;18.40;;;;;;;3.52;100.00;100053.41;8300816;28;20969;-72
2022/01/14 15:58:18;;;;;;;40.08;17.35;;;;;;;3.52;100.00;100058.75;8300252;28;20042;-72
2022/01/14 16:02:19;;;;;;;35.00;16.65;;;;;;;3.51;100.00;100067.81;8301194;28;20046;-71
2022/01/14 16:06:20;;;;;;;38.05;18.10;;;;;;;3.55;100.00;100071.63;8301670;28;20449;-71
2022/01/14 16:10:22;;;;;;;33.63;16.98;;;;;;;3.54;100.00;100088.72;8300487;28;20185;-72
2022/01/14 16:14:30;;;;;;;37.63;15.65;;;;;;;3.53;100.00;100084.44;8301399;28;20050;-72
2022/01/14 16:18:32;;;;;;;46.15;18.92;;;;;;;3.61;100.00;100078.69;8329711;28;20045;-72
2022/01/14 16:22:33;;;;;;;37.45;16.60;;;;;;;3.53;100.00;100092.44;8315643;28;20053;-72
2022/01/14 16:26:34;;;;;;;39.05;17.90;;;;;;;3.64;100.00;100088.09;8323894;28;20124;-72
2022/01/14 16:30:35;;;;;;;37.55;17.13;;;;;;;3.60;100.00;100098.44;8299758;28;20493;-72
2022/01/14 16:34:37;;;;;;;38.05;17.15;;;;;;;3.54;100.00;100110.09;8314961;28;20398;-71
2022/01/14 16:38:38;;;;;;;41.00;18.63;;;;;;;3.70;100.00;100093.25;8311559;28;20136;-71
2022/01/14 16:42:40;;;;;;;36.55;17.08;;;;;;;3.64;100.00;100096.91;8326224;28;20519;-71
2022/01/14 16:46:41;;;;;;;34.15;17.63;;;;;;;3.59;100.00;100096.81;8294503;28;20498;-72
2022/01/14 16:50:42;;;;;;;40.15;17.27;;;;;;;3.62;100.00;100107.03;8260835;28;20062;-72
2022/01/14 16:54:44;;;;;;;35.38;17.80;;;;;;;3.71;100.00;100094.91;8322541;28;20064;-71
2022/01/14 16:58:50;;;;;;;37.42;16.13;;;;;;;3.73;100.00;100103.50;8303562;28;20049;-71
2022/01/14 17:02:51;;;;;;;34.60;17.55;;;;;;;3.69;100.00;100112.22;8303883;28;20049;-72
2022/01/14 17:06:52;;;;;;;61.50;31.50;;;;;;;3.70;100.00;100119.97;8309879;28;20132;-72
2022/01/14 17:10:53;;;;;;;36.38;17.25;;;;;;;3.68;100.00;100122.09;8303007;28;20048;-72
2022/01/14 17:14:55;;;;;;;33.00;15.60;;;;;;;3.71;100.00;100126.94;8324741;28;20061;-73
2022/01/14 17:18:56;;;;;;;47.13;23.85;;;;;;;3.71;100.00;100126.94;8322132;28;20057;-74
2022/01/14 17:22:57;;;;;;;65.13;33.47;;;;;;;3.83;100.00;100134.91;8312360;28;20065;-71
2022/01/14 17:26:58;;;;;;;32.13;15.07;;;;;;;3.85;100.00;100142.72;8295006;28;20136;-71
2022/01/14 17:30:59;;;;;;;24.80;12.98;;;;;;;3.85;100.00;100137.38;8297637;28;20091;-72
2022/01/14 17:35:00;;;;;;;26.00;14.00;;;;;;;3.88;100.00;100152.91;8301924;28;20049;-72
2022/01/14 17:39:04;;;;;;;20.95;10.77;;;;;;;3.92;100.00;100175.41;8294230;28;20042;-72
2022/01/14 17:43:06;;;;;;;26.58;12.40;;;;;;;3.95;100.00;100201.69;8293279;28;20042;-73
2022/01/14 17:47:07;;;;;;;15.40;6.40;;;;;;;3.87;100.00;100188.69;8309168;28;20433;-73
2022/01/14 17:51:15;;;;;;;20.33;4.88;;;;;;;3.75;100.00;100192.22;8265688;28;20144;-72
2022/01/14 17:55:17;;;;;;;13.23;3.28;;;;;;;3.61;100.00;100187.38;8285577;28;20054;-72
2022/01/14 17:59:38;;;;;;;10.90;3.38;;;;;;;3.49;100.00;100198.09;8293302;28;20049;-71
2022/01/14 18:03:39;;;;;;;38.60;14.13;;;;;;;3.36;100.00;100193.03;8215429;28;20472;-72
2022/01/14 18:07:43;;;;;;;10.65;3.45;;;;;;;3.28;100.00;100204.03;8288367;28;20108;-72
2022/01/14 18:11:56;;;;;;;10.75;3.47;;;;;;;3.31;100.00;100200.94;8275664;28;20057;-71
2022/01/14 18:15:57;;;;;;;8.18;3.40;;;;;;;3.29;100.00;100205.69;8287185;28;20133;-71
2022/01/14 18:19:59;;;;;;;18.40;3.80;;;;;;;3.33;100.00;100214.88;8293749;28;20084;-72
2022/01/14 18:24:00;;;;;;;20.42;3.90;;;;;;;3.34;100.00;100211.13;8267829;28;20414;-72
2022/01/14 18:28:02;;;;;;;11.02;3.90;;;;;;;3.34;100.00;100200.44;8266938;28;20054;-72
2022/01/14 18:32:03;;;;;;;14.25;3.65;;;;;;;3.34;100.00;100216.47;8268404;28;20189;-72
2022/01/14 18:36:07;;;;;;;20.15;4.07;;;;;;;3.31;100.00;100216.94;8228845;28;20050;-72
2022/01/14 18:40:09;;;;;;;17.15;4.20;;;;;;;3.32;100.00;100223.91;8270214;28;20061;-72
2022/01/14 18:44:14;;;;;;;22.83;4.65;;;;;;;3.24;100.00;100217.06;8260417;28;20091;-71
2022/01/14 18:48:17;;;;;;;13.10;3.67;;;;;;;3.16;100.00;100237.97;8241404;28;20052;-72
2022/01/14 18:52:18;;;;;;;15.02;3.90;;;;;;;3.09;100.00;100229.25;8248299;28;20513;-72
2022/01/14 18:56:21;;;;;;;14.57;4.65;;;;;;;3.11;100.00;100243.19;8256588;28;20038;-72
2022/01/14 19:00:24;;;;;;;14.88;4.75;;;;;;;3.06;100.00;100253.75;8249065;28;20450;-72
2022/01/14 19:04:25;;;;;;;17.77;6.55;;;;;;;2.97;100.00;100254.09;8243101;28;20073;-71
2022/01/14 19:08:27;;;;;;;18.95;4.60;;;;;;;2.89;100.00;100241.09;8254800;28;20061;-72
2022/01/14 19:12:29;;;;;;;21.10;4.70;;;;;;;2.77;100.00;100245.59;8254635;28;20049;-72
2022/01/14 19:16:36;;;;;;;21.10;5.18;;;;;;;2.66;100.00;100241.06;8254103;28;20035;-72
2022/01/14 19:20:38;;;;;;;19.38;4.60;;;;;;;2.58;100.00;100249.41;8240793;28;20129;-72
2022/01/14 19:24:42;;;;;;;34.15;6.88;;;;;;;2.58;100.00;100260.06;8237262;28;20077;-72
2022/01/14 19:28:44;;;;;;;31.67;6.22;;;;;;;2.55;100.00;100272.00;8233711;28;20059;-73
2022/01/14 19:32:46;;;;;;;24.38;5.75;;;;;;;2.51;100.00;100286.00;8237001;28;20035;-72